Herrick, South Dakota
Current Conditions -  °F | °C
As of 8:53 PM on Monday 22 Dec 2014 (Local Time) from KICR Reporting Station
Overcast Overcast  
Wind Chill: 18°   Ceiling: 1100
Heat Index: 31°   Visibility: 10mi
Dew Point: 27°   Wind: 23mph
Humidity: 85%   Direction: 310°NW
Pressure: 29.54"   Gusts: 31mph
Location:  43.11°N, 99.19°W
Report Text: KICR 230253Z AUTO 31020G27KT 10SM OVC011 M01/M03 A2954 RMK AO2 PK WND 31031/0241 UPB0157E24SNE0157 SLP019 P0000 60000 T10061028 51010
Loading
Personal Weather Stations






























Interactive Weather Map New forecast layout! Learn more

10-Day Weather Forecast

Advertisements
Track Severe Weather on mobile